Time;durP1;ratioP1;P1;durP2;ratioP2;P2;SDS_P1;SDS_P2;PMS_P1;PMS_P2;Temp;Humidity;BMP_temperature;BMP_pressure;BME280_temperature;BME280_humidity;BME280_pressure;Samples;Min_cycle;Max_cycle;Signal;HPM_P1;HPM_P2
2024/01/12 00:01:46;;;;;;;37.28;17.45;;;;;;;-0.02;100.00;103117.59;5033145;28;20492;-72
2024/01/12 00:04:11;;;;;;;40.80;18.25;;;;;;;-0.02;100.00;103119.38;5015484;28;20029;-72
2024/01/12 00:06:37;;;;;;;38.38;18.48;;;;;;;-0.01;100.00;103115.81;5033334;28;20040;-72
2024/01/12 00:09:03;;;;;;;39.35;17.85;;;;;;;0.01;100.00;103118.38;5033203;28;20044;-72
2024/01/12 00:11:29;;;;;;;38.45;18.48;;;;;;;-0.03;100.00;103110.63;5033026;28;20025;-70
2024/01/12 00:13:54;;;;;;;37.33;16.75;;;;;;;-0.02;100.00;103114.13;5033100;28;20037;-72
2024/01/12 00:16:20;;;;;;;36.28;16.13;;;;;;;0.01;100.00;103116.59;5015315;28;20025;-72
2024/01/12 00:18:46;;;;;;;37.28;17.33;;;;;;;0.01;100.00;103118.38;5032212;28;20092;-72
2024/01/12 00:21:11;;;;;;;39.05;18.27;;;;;;;-0.07;100.00;103110.91;5033125;28;20108;-72
2024/01/12 00:23:37;;;;;;;36.67;16.40;;;;;;;-0.01;100.00;103111.41;5032868;28;20537;-73
2024/01/12 00:26:02;;;;;;;40.50;18.52;;;;;;;-0.04;100.00;103111.56;5033163;28;20029;-72
2024/01/12 00:28:28;;;;;;;39.17;17.35;;;;;;;-0.08;100.00;103110.06;5015108;28;20079;-73
2024/01/12 00:30:54;;;;;;;40.20;18.23;;;;;;;-0.09;100.00;103118.03;5015103;28;20498;-72
2024/01/12 00:33:20;;;;;;;35.35;16.60;;;;;;;-0.10;100.00;103111.94;5032959;28;20021;-72
2024/01/12 00:35:45;;;;;;;33.85;16.02;;;;;;;-0.11;100.00;103112.03;5032839;28;20040;-71
2024/01/12 00:38:10;;;;;;;36.58;16.73;;;;;;;-0.10;100.00;103114.56;5032639;28;20386;-72
2024/01/12 00:40:36;;;;;;;34.50;16.30;;;;;;;-0.07;100.00;103113.53;5014914;28;20061;-72
2024/01/12 00:43:01;;;;;;;37.05;18.60;;;;;;;-0.06;100.00;103109.97;5014841;28;20076;-73
2024/01/12 00:45:26;;;;;;;34.35;17.10;;;;;;;-0.08;100.00;103117.09;5032668;28;20112;-74
2024/01/12 00:47:52;;;;;;;38.10;17.33;;;;;;;-0.09;100.00;103121.50;5032587;28;20064;-73
2024/01/12 00:50:17;;;;;;;36.95;17.27;;;;;;;-0.09;100.00;103116.25;5032424;28;20037;-73
2024/01/12 00:52:43;;;;;;;37.70;18.42;;;;;;;-0.05;100.00;103123.03;5032506;28;20041;-74
2024/01/12 00:55:08;;;;;;;35.10;17.45;;;;;;;-0.06;100.00;103118.72;5014786;28;20091;-73
2024/01/12 00:57:33;;;;;;;32.85;16.55;;;;;;;-0.05;100.00;103122.19;5032517;28;20029;-74
2024/01/12 00:59:59;;;;;;;33.97;15.57;;;;;;;-0.11;100.00;103114.66;5032350;28;20474;-72
2024/01/12 01:02:24;;;;;;;34.92;16.80;;;;;;;-0.14;100.00;103114.84;5014661;28;20038;-72
2024/01/12 01:04:49;;;;;;;32.80;16.02;;;;;;;-0.09;100.00;103124.16;5014570;28;20029;-72
2024/01/12 01:07:15;;;;;;;39.97;18.27;;;;;;;-0.15;100.00;103119.25;5032140;28;20037;-73
2024/01/12 01:09:40;;;;;;;34.15;17.08;;;;;;;-0.19;100.00;103119.50;5032514;28;20030;-73
2024/01/12 01:12:06;;;;;;;36.08;16.60;;;;;;;-0.23;100.00;103116.22;5032226;28;20493;-72
2024/01/12 01:14:31;;;;;;;35.35;16.58;;;;;;;-0.24;100.00;103118.94;5032032;28;20112;-72
2024/01/12 01:16:56;;;;;;;35.63;16.42;;;;;;;-0.24;100.00;103126.81;5014477;28;20035;-72
2024/01/12 01:19:22;;;;;;;35.88;16.88;;;;;;;-0.22;100.00;103123.16;5032216;28;20025;-73
2024/01/12 01:21:48;;;;;;;38.38;17.42;;;;;;;-0.22;100.00;103125.78;5032203;28;20482;-72
2024/01/12 01:24:13;;;;;;;36.58;18.10;;;;;;;-0.17;100.00;103136.03;5031942;28;20033;-72
2024/01/12 01:26:38;;;;;;;36.88;17.52;;;;;;;-0.11;100.00;103138.31;5014335;28;20120;-73
2024/01/12 01:29:04;;;;;;;38.15;17.67;;;;;;;-0.12;100.00;103140.09;5013681;28;20065;-74
2024/01/12 01:31:29;;;;;;;41.55;19.15;;;;;;;-0.08;100.00;103146.88;5013809;28;20021;-73
2024/01/12 01:33:54;;;;;;;38.45;18.10;;;;;;;-0.09;100.00;103149.59;5032152;28;20033;-73
2024/01/12 01:36:20;;;;;;;35.92;17.02;;;;;;;-0.07;100.00;103150.34;5032034;28;20032;-73
2024/01/12 01:38:45;;;;;;;39.63;17.48;;;;;;;-0.05;100.00;103156.38;5031855;28;20036;-73
2024/01/12 01:41:11;;;;;;;35.10;15.90;;;;;;;-0.04;100.00;103166.78;5031911;28;20060;-74
2024/01/12 01:43:36;;;;;;;39.90;18.20;;;;;;;-0.05;100.00;103162.47;5031801;28;20425;-73
2024/01/12 01:46:02;;;;;;;34.97;16.23;;;;;;;-0.03;100.00;103165.84;5031677;28;20048;-73
2024/01/12 01:48:28;;;;;;;35.88;16.83;;;;;;;-0.02;100.00;103164.06;5031418;28;20500;-73
2024/01/12 01:50:54;;;;;;;35.72;17.02;;;;;;;-0.06;100.00;103163.41;5014082;28;20029;-73
2024/01/12 01:53:20;;;;;;;35.75;17.50;;;;;;;-0.05;100.00;103166.88;5031531;28;20481;-73
2024/01/12 01:55:46;;;;;;;34.85;16.38;;;;;;;-0.09;100.00;103158.31;5031694;28;20045;-73
2024/01/12 01:58:12;;;;;;;37.80;17.85;;;;;;;-0.12;100.00;103155.03;5031627;28;20053;-73
2024/01/12 02:00:38;;;;;;;37.00;16.42;;;;;;;-0.11;100.00;103154.94;5013893;28;20022;-73
2024/01/12 02:03:04;;;;;;;39.88;18.67;;;;;;;-0.11;100.00;103151.47;5031450;28;20492;-74
2024/01/12 02:05:30;;;;;;;41.05;17.75;;;;;;;-0.15;100.00;103140.28;5031289;28;20029;-73
2024/01/12 02:07:57;;;;;;;33.50;15.57;;;;;;;-0.17;100.00;103147.41;5031482;28;20055;-73
2024/01/12 02:10:23;;;;;;;39.45;18.08;;;;;;;-0.26;100.00;103139.22;5031500;28;20041;-74
2024/01/12 02:12:48;;;;;;;41.85;16.85;;;;;;;-0.22;100.00;103138.94;5031329;28;20037;-74
2024/01/12 02:15:14;;;;;;;37.55;17.70;;;;;;;-0.23;100.00;103139.88;5031281;28;20040;-73
2024/01/12 02:17:41;;;;;;;34.15;16.00;;;;;;;-0.26;100.00;103132.16;5031317;28;20061;-73
2024/01/12 02:20:07;;;;;;;40.50;19.00;;;;;;;-0.32;100.00;103121.97;5031235;28;20456;-75
2024/01/12 02:22:32;;;;;;;36.30;17.27;;;;;;;-0.32;100.00;103125.44;5013517;28;20100;-74
2024/01/12 02:24:58;;;;;;;37.50;17.25;;;;;;;-0.32;100.00;103135.13;5031253;28;20441;-73
2024/01/12 02:27:24;;;;;;;40.25;17.65;;;;;;;-0.25;100.00;103133.84;5031242;28;20083;-73
2024/01/12 02:29:51;;;;;;;40.63;18.73;;;;;;;-0.21;100.00;103138.00;5031289;28;20108;-73
2024/01/12 02:32:16;;;;;;;41.63;17.50;;;;;;;-0.19;100.00;103127.41;5031357;28;20021;-73
2024/01/12 02:34:41;;;;;;;38.80;18.30;;;;;;;-0.16;100.00;103143.84;5013455;28;20044;-73
2024/01/12 02:37:07;;;;;;;37.92;18.38;;;;;;;-0.17;100.00;103138.66;5013330;28;20021;-73
2024/01/12 02:39:32;;;;;;;32.65;15.57;;;;;;;-0.18;100.00;103142.25;5013377;28;20128;-72
2024/01/12 02:41:57;;;;;;;37.90;17.48;;;;;;;-0.24;100.00;103130.28;5033041;28;20409;-73
2024/01/12 02:44:26;;;;;;;31.67;15.68;;;;;;;-0.15;100.00;103142.91;5034452;28;20457;-73
2024/01/12 02:46:52;;;;;;;39.38;17.88;;;;;;;-0.15;100.00;103142.91;5034505;28;20490;-72
2024/01/12 02:49:17;;;;;;;41.08;17.05;;;;;;;-0.17;100.00;103139.53;5034276;28;20026;-73
2024/01/12 02:51:43;;;;;;;34.75;17.48;;;;;;;-0.22;100.00;103135.47;5034393;28;20394;-73
2024/01/12 02:54:08;;;;;;;35.35;16.70;;;;;;;-0.22;100.00;103130.22;5034455;28;20100;-73
2024/01/12 02:56:34;;;;;;;37.28;17.20;;;;;;;-0.19;100.00;103122.16;5016594;28;20029;-73
2024/01/12 02:59:00;;;;;;;36.95;17.17;;;;;;;-0.18;100.00;103121.22;5016304;28;20036;-73
2024/01/12 03:01:25;;;;;;;41.92;18.52;;;;;;;-0.17;100.00;103115.84;5034261;28;20029;-72
2024/01/12 03:03:51;;;;;;;39.97;17.00;;;;;;;-0.16;100.00;103120.19;5034097;28;20029;-72
2024/01/12 03:06:16;;;;;;;40.13;16.33;;;;;;;-0.12;100.00;103118.22;5034270;28;20586;-73
2024/01/12 03:08:41;;;;;;;38.85;17.58;;;;;;;-0.10;100.00;103122.44;5016347;28;20390;-72
2024/01/12 03:11:07;;;;;;;33.55;16.15;;;;;;;-0.13;100.00;103114.75;5033982;28;20065;-73
2024/01/12 03:13:33;;;;;;;37.95;17.20;;;;;;;-0.08;100.00;103117.09;5034009;28;20033;-74
2024/01/12 03:15:59;;;;;;;36.22;16.55;;;;;;;-0.10;100.00;103117.19;5034008;28;20080;-73
2024/01/12 03:18:25;;;;;;;35.75;17.10;;;;;;;-0.10;100.00;103122.44;5016228;28;20386;-73
2024/01/12 03:20:50;;;;;;;36.70;17.55;;;;;;;-0.10;100.00;103117.19;5016286;28;20037;-73
2024/01/12 03:23:15;;;;;;;37.55;16.77;;;;;;;-0.13;100.00;103117.38;5033846;28;20029;-72
2024/01/12 03:25:40;;;;;;;39.70;19.40;;;;;;;-0.13;100.00;103111.28;5033751;28;20473;-72
2024/01/12 03:28:08;;;;;;;36.42;16.85;;;;;;;-0.20;100.00;103110.78;5033913;28;20444;-72
2024/01/12 03:30:34;;;;;;;39.05;16.50;;;;;;;-0.19;100.00;103112.47;5033968;28;20036;-73
2024/01/12 03:32:59;;;;;;;37.17;17.27;;;;;;;-0.23;100.00;103103.06;5033794;28;20385;-73
2024/01/12 03:35:24;;;;;;;34.72;16.35;;;;;;;-0.22;100.00;103107.41;5033799;28;20048;-73
2024/01/12 03:37:50;;;;;;;36.65;16.33;;;;;;;-0.22;100.00;103115.28;5033883;28;20032;-72
2024/01/12 03:40:15;;;;;;;36.30;16.75;;;;;;;-0.22;100.00;103112.66;5033624;28;20438;-73
2024/01/12 03:42:40;;;;;;;31.80;16.50;;;;;;;-0.19;100.00;103117.72;5015989;28;20429;-73
2024/01/12 03:45:06;;;;;;;36.05;17.38;;;;;;;-0.19;100.00;103109.00;5033596;28;20104;-72
2024/01/12 03:47:32;;;;;;;37.97;16.00;;;;;;;-0.19;100.00;103107.22;5033553;28;20095;-73
2024/01/12 03:49:57;;;;;;;35.35;17.38;;;;;;;-0.18;100.00;103102.81;5033557;28;20104;-72
2024/01/12 03:52:22;;;;;;;37.90;16.40;;;;;;;-0.19;100.00;103106.38;5014982;28;20037;-74
2024/01/12 03:54:48;;;;;;;35.63;16.33;;;;;;;-0.17;100.00;103107.97;5033211;28;20346;-73
2024/01/12 03:57:13;;;;;;;33.97;15.68;;;;;;;-0.16;100.00;103103.56;5015751;28;20551;-74
2024/01/12 03:59:40;;;;;;;37.75;18.05;;;;;;;-0.15;100.00;103100.00;5033369;28;20025;-73
2024/01/12 04:02:05;;;;;;;37.15;17.00;;;;;;;-0.14;100.00;103097.28;5033347;28;20029;-72
2024/01/12 04:04:30;;;;;;;37.67;17.52;;;;;;;-0.15;100.00;103097.38;5033133;28;20492;-74
2024/01/12 04:06:56;;;;;;;34.42;16.23;;;;;;;-0.17;100.00;103093.97;5015523;28;20026;-74
2024/01/12 04:09:22;;;;;;;38.00;18.50;;;;;;;-0.18;100.00;103093.13;5033230;28;20046;-73
2024/01/12 04:11:47;;;;;;;35.10;17.02;;;;;;;-0.18;100.00;103089.66;5033242;28;20029;-73
2024/01/12 04:14:13;;;;;;;36.30;16.17;;;;;;;-0.16;100.00;103091.25;5033305;28;20434;-73
2024/01/12 04:16:38;;;;;;;38.33;18.05;;;;;;;-0.18;100.00;103092.28;5033139;28;20026;-74
2024/01/12 04:19:03;;;;;;;35.53;16.42;;;;;;;-0.19;100.00;103085.34;5032950;28;20047;-74
2024/01/12 04:21:29;;;;;;;34.53;16.98;;;;;;;-0.20;100.00;103096.78;5033083;28;20494;-73
2024/01/12 04:23:54;;;;;;;38.88;17.00;;;;;;;-0.17;100.00;103091.34;5032847;28;20534;-73
2024/01/12 04:26:19;;;;;;;38.35;17.15;;;;;;;-0.16;100.00;103096.53;5015239;28;20026;-73
2024/01/12 04:28:44;;;;;;;36.60;16.77;;;;;;;-0.14;100.00;103096.44;5032952;28;20116;-73
2024/01/12 04:31:10;;;;;;;31.58;14.48;;;;;;;-0.13;100.00;103095.50;5015204;28;20422;-73
2024/01/12 04:33:35;;;;;;;35.55;16.70;;;;;;;-0.12;100.00;103108.56;5015036;28;20030;-73
2024/01/12 04:36:01;;;;;;;33.88;16.58;;;;;;;-0.10;100.00;103116.34;5015076;28;20048;-73
2024/01/12 04:38:27;;;;;;;36.85;16.55;;;;;;;-0.10;100.00;103108.47;5032699;28;20102;-74
2024/01/12 04:40:53;;;;;;;37.90;17.10;;;;;;;-0.13;100.00;103108.63;5015074;28;20462;-74
2024/01/12 04:43:19;;;;;;;31.58;15.95;;;;;;;-0.11;100.00;103101.50;5033033;28;20033;-74
2024/01/12 04:45:44;;;;;;;35.38;17.02;;;;;;;-0.12;100.00;103107.69;5032793;28;20120;-74
2024/01/12 04:48:10;;;;;;;39.05;17.58;;;;;;;-0.13;100.00;103106.00;5015080;28;20056;-74
2024/01/12 04:50:35;;;;;;;38.22;17.27;;;;;;;-0.14;100.00;103105.16;5032514;28;20036;-74
2024/01/12 04:53:00;;;;;;;37.30;17.70;;;;;;;-0.14;100.00;103101.69;5014964;28;20112;-74
2024/01/12 04:55:26;;;;;;;38.88;18.40;;;;;;;-0.14;100.00;103101.69;5014741;28;20470;-73
2024/01/12 04:57:51;;;;;;;38.92;15.75;;;;;;;-0.18;100.00;103100.19;5014725;28;20508;-72
2024/01/12 05:00:18;;;;;;;36.03;16.58;;;;;;;-0.16;100.00;103107.03;5032534;28;20414;-72
2024/01/12 05:02:43;;;;;;;35.13;16.63;;;;;;;-0.17;100.00;103110.59;5032376;28;20029;-74
2024/01/12 05:05:09;;;;;;;39.05;18.23;;;;;;;-0.20;100.00;103100.25;5031925;28;20543;-73
2024/01/12 05:07:34;;;;;;;35.67;17.05;;;;;;;-0.23;100.00;103089.09;5032354;28;20029;-74
2024/01/12 05:10:00;;;;;;;41.35;18.33;;;;;;;-0.18;100.00;103092.28;5014588;28;20434;-73
2024/01/12 05:12:26;;;;;;;35.25;16.45;;;;;;;-0.21;100.00;103085.44;5032146;28;20080;-74
2024/01/12 05:14:51;;;;;;;40.65;16.95;;;;;;;-0.22;100.00;103082.88;5032180;28;20116;-73
2024/01/12 05:17:16;;;;;;;36.65;16.75;;;;;;;-0.20;100.00;103075.75;5032122;28;20026;-73
2024/01/12 05:19:42;;;;;;;37.65;18.00;;;;;;;-0.15;100.00;103081.59;5032069;28;20026;-73
2024/01/12 05:22:07;;;;;;;42.20;19.58;;;;;;;-0.18;100.00;103084.41;5014262;28;20030;-74
2024/01/12 05:24:33;;;;;;;35.85;17.85;;;;;;;-0.18;100.00;103080.00;5031907;28;20033;-73
2024/01/12 05:26:59;;;;;;;38.40;17.30;;;;;;;-0.14;100.00;103078.88;5014150;28;20083;-73
2024/01/12 05:29:24;;;;;;;33.50;16.13;;;;;;;-0.12;100.00;103081.41;5014315;28;20112;-74
2024/01/12 05:31:49;;;;;;;33.85;16.42;;;;;;;-0.11;100.00;103073.44;5031945;28;20063;-74
2024/01/12 05:34:15;;;;;;;36.22;17.15;;;;;;;-0.10;100.00;103075.13;5031746;28;20119;-74
2024/01/12 05:36:40;;;;;;;31.42;14.45;;;;;;;-0.14;100.00;103072.78;5031764;28;20033;-75
2024/01/12 05:39:06;;;;;;;39.38;16.48;;;;;;;-0.11;100.00;103072.59;5031872;28;20433;-75
2024/01/12 05:41:32;;;;;;;33.67;16.50;;;;;;;-0.13;100.00;103071.84;5031950;28;20129;-75
2024/01/12 05:43:57;;;;;;;34.63;15.75;;;;;;;-0.08;100.00;103085.56;5031803;28;20063;-75
2024/01/12 05:46:22;;;;;;;36.35;16.35;;;;;;;-0.04;100.00;103087.06;5014160;28;20043;-74
2024/01/12 05:48:48;;;;;;;37.55;17.10;;;;;;;-0.04;100.00;103087.06;5031884;28;20052;-75
2024/01/12 05:51:14;;;;;;;36.30;16.90;;;;;;;-0.01;100.00;103089.50;5013869;28;20033;-75
2024/01/12 05:53:40;;;;;;;38.20;17.27;;;;;;;-0.01;100.00;103095.63;5013846;28;20072;-74
2024/01/12 05:56:05;;;;;;;33.35;17.77;;;;;;;-0.01;100.00;103098.25;5031702;28;20033;-74
2024/01/12 05:58:31;;;;;;;42.60;17.15;;;;;;;0.01;100.00;103097.34;5031856;28;20417;-74
2024/01/12 06:00:56;;;;;;;36.67;16.65;;;;;;;0.03;100.00;103096.31;5031560;28;20022;-73
2024/01/12 06:03:22;;;;;;;36.67;19.95;;;;;;;0.00;100.00;103096.50;5031406;28;20105;-74
2024/01/12 06:05:50;;;;;;;39.38;16.95;;;;;;;-0.01;100.00;103098.25;5013645;28;20033;-75
2024/01/12 06:08:16;;;;;;;37.55;15.88;;;;;;;0.02;100.00;103114.81;5031422;28;20030;-76
2024/01/12 06:10:42;;;;;;;36.05;16.85;;;;;;;0.01;100.00;103103.44;5013582;28;20068;-74
2024/01/12 06:13:07;;;;;;;32.70;16.67;;;;;;;0.05;100.00;103101.47;5031333;28;20168;-73
2024/01/12 06:15:32;;;;;;;35.00;16.83;;;;;;;0.04;100.00;103103.25;5031164;28;20034;-73
2024/01/12 06:17:59;;;;;;;32.67;15.88;;;;;;;0.02;100.00;103099.03;5035469;28;20021;-73
2024/01/12 06:20:25;;;;;;;32.80;15.40;;;;;;;0.04;100.00;103103.25;5036336;28;20021;-73
2024/01/12 06:22:50;;;;;;;33.15;15.68;;;;;;;0.04;100.00;103102.41;5035218;28;20394;-74
2024/01/12 06:25:16;;;;;;;31.48;15.50;;;;;;;0.06;100.00;103108.44;5035285;28;20080;-73
2024/01/12 06:27:41;;;;;;;30.35;15.15;;;;;;;0.09;100.00;103114.34;5034730;28;20033;-72
2024/01/12 06:30:07;;;;;;;31.05;15.57;;;;;;;0.13;100.00;103107.97;5016978;28;20040;-73
2024/01/12 06:32:33;;;;;;;32.65;14.65;;;;;;;0.16;100.00;103112.22;5034689;28;20041;-72
2024/01/12 06:34:58;;;;;;;28.15;13.82;;;;;;;0.16;100.00;103102.53;5034538;28;20544;-73
2024/01/12 06:37:24;;;;;;;32.88;15.82;;;;;;;0.17;100.00;103114.75;5034720;28;20390;-73
2024/01/12 06:39:49;;;;;;;29.98;13.73;;;;;;;0.20;100.00;103124.25;5016867;28;20018;-72
2024/01/12 06:42:15;;;;;;;28.25;15.45;;;;;;;0.17;100.00;103120.00;5034563;28;20359;-71
2024/01/12 06:44:43;;;;;;;31.55;15.65;;;;;;;0.16;100.00;103123.56;5034396;28;20080;-72
2024/01/12 06:47:08;;;;;;;30.67;15.02;;;;;;;0.09;100.00;103121.41;5016480;28;20056;-73
2024/01/12 06:49:34;;;;;;;32.78;16.35;;;;;;;0.10;100.00;103129.19;5034461;28;20485;-74
2024/01/12 06:51:59;;;;;;;29.38;14.40;;;;;;;0.11;100.00;103125.63;5034975;28;20025;-73
2024/01/12 06:54:25;;;;;;;29.05;15.23;;;;;;;0.14;100.00;103125.44;5034250;28;20036;-72
2024/01/12 06:56:52;;;;;;;32.53;15.65;;;;;;;0.19;100.00;103126.03;5034300;28;20033;-72
2024/01/12 06:59:18;;;;;;;33.53;15.43;;;;;;;0.19;100.00;103133.91;5034337;28;20033;-72
2024/01/12 07:01:46;;;;;;;36.25;15.05;;;;;;;0.16;100.00;103126.19;5016328;28;20470;-73
2024/01/12 07:04:12;;;;;;;34.70;15.18;;;;;;;0.21;100.00;103131.19;5016288;28;20025;-73
2024/01/12 07:06:37;;;;;;;36.03;13.75;;;;;;;0.22;100.00;103122.34;5034206;28;20044;-73
2024/01/12 07:09:02;;;;;;;34.33;15.15;;;;;;;0.21;100.00;103120.66;5034131;28;20120;-73
2024/01/12 07:11:28;;;;;;;29.02;14.68;;;;;;;0.16;100.00;103107.78;5034087;28;20022;-72
2024/01/12 07:13:53;;;;;;;27.98;13.77;;;;;;;0.18;100.00;103126.97;5034035;28;20038;-71
2024/01/12 07:16:18;;;;;;;34.45;14.88;;;;;;;0.09;100.00;103121.41;5033953;28;20029;-72
2024/01/12 07:18:44;;;;;;;32.55;15.85;;;;;;;0.03;100.00;103100.72;5034322;28;20462;-71
2024/01/12 07:21:09;;;;;;;32.10;15.25;;;;;;;-0.02;100.00;103103.59;5033916;28;20025;-71
2024/01/12 07:23:34;;;;;;;35.75;16.25;;;;;;;-0.09;100.00;103095.22;5033962;28;20116;-71
2024/01/12 07:26:00;;;;;;;34.17;14.43;;;;;;;-0.07;100.00;103100.38;5033841;28;20025;-71
2024/01/12 07:28:26;;;;;;;36.45;15.43;;;;;;;0.00;100.00;103099.13;5033726;28;20041;-72
2024/01/12 07:30:53;;;;;;;31.83;13.93;;;;;;;0.03;100.00;103091.06;5033856;28;20079;-72
2024/01/12 07:33:20;;;;;;;29.20;14.90;;;;;;;0.07;100.00;103092.56;5033799;28;20026;-71
2024/01/12 07:35:45;;;;;;;32.53;14.38;;;;;;;0.12;100.00;103092.28;5015919;28;20084;-71
2024/01/12 07:38:10;;;;;;;33.28;14.68;;;;;;;0.17;100.00;103098.97;5033679;28;20022;-71
2024/01/12 07:40:36;;;;;;;27.00;13.77;;;;;;;0.21;100.00;103111.00;5033617;28;20413;-72
2024/01/12 07:43:02;;;;;;;30.60;14.30;;;;;;;0.24;100.00;103096.81;5033773;28;20022;-72
2024/01/12 07:45:28;;;;;;;32.38;14.45;;;;;;;0.22;100.00;103096.91;5015774;28;20044;-73
2024/01/12 07:47:53;;;;;;;26.20;12.85;;;;;;;0.20;100.00;103108.44;5033645;28;20427;-72
2024/01/12 07:50:18;;;;;;;31.05;14.25;;;;;;;0.23;100.00;103108.28;5033613;28;20086;-72
2024/01/12 07:52:44;;;;;;;28.73;13.35;;;;;;;0.20;100.00;103092.66;5015772;28;20499;-72
2024/01/12 07:55:10;;;;;;;27.60;14.40;;;;;;;0.27;100.00;103096.63;5033448;28;20045;-74
2024/01/12 07:57:35;;;;;;;25.42;13.15;;;;;;;0.23;100.00;103088.06;5033332;28;20107;-74
2024/01/12 08:00:01;;;;;;;28.40;13.43;;;;;;;0.26;100.00;103090.50;5033349;28;20061;-72
2024/01/12 08:02:26;;;;;;;35.00;14.55;;;;;;;0.27;100.00;103086.94;5015580;28;20477;-72
2024/01/12 08:04:51;;;;;;;28.15;13.68;;;;;;;0.24;100.00;103076.59;5033102;28;20041;-74
2024/01/12 08:07:17;;;;;;;30.88;14.10;;;;;;;0.27;100.00;103089.56;5033231;28;20132;-73
2024/01/12 08:09:42;;;;;;;27.05;13.30;;;;;;;0.34;100.00;103097.97;5033239;28;20042;-71
2024/01/12 08:12:08;;;;;;;29.73;14.05;;;;;;;0.41;100.00;103106.34;5015365;28;20104;-72
2024/01/12 08:14:33;;;;;;;36.55;15.00;;;;;;;0.37;100.00;103099.56;5033057;28;20091;-72
2024/01/12 08:16:59;;;;;;;27.67;11.88;;;;;;;0.39;100.00;103105.59;5033135;28;20022;-73
2024/01/12 08:19:24;;;;;;;29.10;13.50;;;;;;;0.40;100.00;103102.00;5033072;28;20032;-71
2024/01/12 08:21:49;;;;;;;23.40;12.98;;;;;;;0.48;100.00;103102.41;5033079;28;20049;-71
2024/01/12 08:24:15;;;;;;;28.80;13.75;;;;;;;0.48;100.00;103105.03;5032895;28;20033;-71
2024/01/12 08:26:41;;;;;;;31.67;13.15;;;;;;;0.49;100.00;103112.81;5032901;28;20030;-72
2024/01/12 08:29:06;;;;;;;29.08;12.68;;;;;;;0.54;100.00;103110.75;5032904;28;20095;-73
2024/01/12 08:31:32;;;;;;;26.88;12.75;;;;;;;0.57;100.00;103110.56;5032864;28;20036;-73
2024/01/12 08:33:58;;;;;;;31.48;12.90;;;;;;;0.64;100.00;103116.34;5032845;28;20033;-73
2024/01/12 08:36:24;;;;;;;30.33;12.07;;;;;;;0.62;100.00;103102.41;5032956;28;20061;-72
2024/01/12 08:38:50;;;;;;;28.73;14.13;;;;;;;0.74;100.00;103119.25;5014327;28;20100;-72
2024/01/12 08:41:16;;;;;;;30.05;11.68;;;;;;;0.77;100.00;103117.25;5032669;28;20076;-71
2024/01/12 08:43:41;;;;;;;26.42;12.23;;;;;;;0.84;100.00;103125.63;5032706;28;20014;-72
2024/01/12 08:46:08;;;;;;;30.15;14.77;;;;;;;0.86;100.00;103134.28;5032604;28;20044;-72
2024/01/12 08:48:34;;;;;;;23.13;11.18;;;;;;;0.87;100.00;103126.31;5032633;28;20432;-72
2024/01/12 08:50:59;;;;;;;26.75;11.77;;;;;;;0.88;100.00;103125.38;5032609;28;20108;-71
2024/01/12 08:53:25;;;;;;;31.10;14.48;;;;;;;0.87;100.00;103112.31;5032527;28;20471;-72
2024/01/12 08:55:50;;;;;;;26.60;13.02;;;;;;;0.88;100.00;103122.75;5032464;28;20152;-72
2024/01/12 08:58:15;;;;;;;26.20;13.60;;;;;;;0.87;100.00;103113.16;5032365;28;20112;-72
2024/01/12 09:00:41;;;;;;;25.80;13.48;;;;;;;0.87;100.00;103115.78;5032381;28;20038;-73
2024/01/12 09:03:06;;;;;;;27.08;12.75;;;;;;;0.86;100.00;103102.69;5014556;28;20428;-72
2024/01/12 09:05:31;;;;;;;28.38;13.23;;;;;;;0.90;100.00;103109.47;5014443;28;20021;-72
2024/01/12 09:07:57;;;;;;;24.88;13.00;;;;;;;0.98;100.00;103111.63;5032305;28;20041;-72
2024/01/12 09:10:22;;;;;;;25.45;12.85;;;;;;;1.07;100.00;103117.16;5032448;28;20024;-73
2024/01/12 09:12:47;;;;;;;24.73;12.70;;;;;;;1.12;100.00;103103.69;5032386;28;20455;-73
2024/01/12 09:15:14;;;;;;;28.40;13.20;;;;;;;1.18;100.00;103108.59;5014330;28;20386;-72
2024/01/12 09:17:40;;;;;;;28.38;12.57;;;;;;;1.22;100.00;103115.38;5032128;28;20030;-72
2024/01/12 09:20:07;;;;;;;30.42;13.02;;;;;;;1.25;100.00;103112.53;5032064;28;20470;-73
2024/01/12 09:22:32;;;;;;;27.38;13.13;;;;;;;1.27;100.00;103113.28;5032079;28;20029;-73
2024/01/12 09:24:58;;;;;;;28.13;13.15;;;;;;;1.25;100.00;103104.63;5014256;28;20033;-73
2024/01/12 09:27:23;;;;;;;26.30;12.27;;;;;;;1.29;100.00;103110.53;5014368;28;20087;-73
2024/01/12 09:29:48;;;;;;;27.42;12.70;;;;;;;1.29;100.00;103106.13;5031952;28;20033;-72
2024/01/12 09:32:13;;;;;;;28.40;12.13;;;;;;;1.44;100.00;103109.56;5031886;28;20470;-73
2024/01/12 09:34:39;;;;;;;24.67;12.13;;;;;;;1.51;100.00;103111.72;5031910;28;20432;-73
2024/01/12 09:37:04;;;;;;;23.90;12.73;;;;;;;1.51;100.00;103117.00;5013952;28;20525;-74
2024/01/12 09:39:29;;;;;;;27.65;12.02;;;;;;;1.61;100.00;103119.03;5031471;28;20087;-72
2024/01/12 09:42:02;;;;;;;23.45;11.85;;;;;;;1.60;100.00;103112.91;5031731;28;20550;-73
2024/01/12 09:44:28;;;;;;;23.80;11.97;;;;;;;1.60;100.00;103109.41;5013989;28;20069;-74
2024/01/12 09:46:57;;;;;;;33.88;12.52;;;;;;;1.60;100.00;103112.91;5031735;28;20311;-73
2024/01/12 09:49:24;;;;;;;26.23;11.35;;;;;;;1.57;100.00;103115.75;5031766;28;20116;-73
2024/01/12 09:51:50;;;;;;;24.88;11.20;;;;;;;1.45;100.00;103093.66;5030508;28;20048;-73
2024/01/12 09:54:16;;;;;;;26.08;13.50;;;;;;;1.49;100.00;103107.50;5014010;28;20482;-73
2024/01/12 09:56:43;;;;;;;24.85;12.25;;;;;;;1.49;100.00;103104.84;5031560;28;20531;-72
2024/01/12 09:59:09;;;;;;;26.13;12.18;;;;;;;1.61;100.00;103105.84;5031576;28;20064;-72
2024/01/12 10:01:34;;;;;;;25.45;10.90;;;;;;;1.78;100.00;103110.88;5031561;28;20140;-75
2024/01/12 10:04:00;;;;;;;31.65;12.23;;;;;;;1.90;100.00;103110.06;5031534;28;20068;-74
2024/01/12 10:06:25;;;;;;;25.98;11.57;;;;;;;1.94;100.00;103105.41;5013847;28;20025;-74
2024/01/12 10:08:51;;;;;;;26.90;11.60;;;;;;;2.04;100.00;103099.44;5031443;28;20037;-72
2024/01/12 10:11:16;;;;;;;27.55;12.50;;;;;;;2.10;100.00;103098.19;5013756;28;20030;-72
2024/01/12 10:13:41;;;;;;;26.98;12.88;;;;;;;2.18;100.00;103106.41;5031477;28;20026;-73
2024/01/12 10:16:07;;;;;;;21.20;11.13;;;;;;;2.15;100.00;103107.47;5031463;28;20065;-72
2024/01/12 10:18:33;;;;;;;19.13;11.60;;;;;;;2.13;100.00;103104.09;5031236;28;20021;-73
2024/01/12 10:20:59;;;;;;;19.55;11.32;;;;;;;2.24;100.00;103113.91;5031341;28;20386;-74
2024/01/12 10:23:26;;;;;;;18.75;10.38;;;;;;;2.29;100.00;103109.16;5031225;28;20040;-72
2024/01/12 10:26:04;;;;;;;28.08;12.48;;;;;;;2.37;100.00;103116.59;5031051;28;20033;-73
2024/01/12 10:28:33;;;;;;;19.65;11.07;;;;;;;2.33;100.00;103112.47;5013501;28;20501;-72
2024/01/12 10:31:05;;;;;;;21.58;11.32;;;;;;;2.42;100.00;103122.41;5013475;28;20025;-73
2024/01/12 10:33:30;;;;;;;24.90;12.00;;;;;;;2.48;100.00;103114.06;5031323;28;20041;-73
2024/01/12 10:36:05;;;;;;;24.92;12.02;;;;;;;2.51;100.00;103108.56;5030920;28;20512;-73
2024/01/12 10:38:34;;;;;;;29.60;11.57;;;;;;;2.45;100.00;103098.41;5031172;28;20029;-74
2024/01/12 10:41:03;;;;;;;26.00;12.02;;;;;;;2.41;100.00;103097.78;5031125;28;20030;-72
2024/01/12 10:43:32;;;;;;;23.67;12.73;;;;;;;2.40;100.00;103090.81;5031064;28;20025;-72
2024/01/12 10:46:00;;;;;;;23.20;10.70;;;;;;;2.48;100.00;103090.28;5030884;28;20045;-72
2024/01/12 10:48:29;;;;;;;23.08;12.02;;;;;;;2.46;100.00;103089.56;5030999;28;20029;-73
2024/01/12 10:51:00;;;;;;;22.17;11.13;;;;;;;2.43;100.00;103095.03;5013158;28;20076;-74
2024/01/12 10:53:36;;;;;;;23.55;10.65;;;;;;;2.45;100.00;103091.34;5031027;28;20026;-74
2024/01/12 10:56:03;;;;;;;22.23;11.98;;;;;;;2.46;100.00;103087.75;5030905;28;20038;-73
2024/01/12 10:58:29;;;;;;;27.85;12.27;;;;;;;2.53;100.00;103093.44;5030815;28;20025;-73